createdAt,value
2018-07-12T00:03:22.193Z,15.80
2018-07-12T00:07:55.481Z,15.90
2018-07-12T00:12:28.501Z,15.90
2018-07-12T00:17:01.728Z,15.90
2018-07-12T00:21:34.777Z,15.90
2018-07-12T00:26:07.785Z,15.80
2018-07-12T00:30:40.893Z,15.80
2018-07-12T00:35:14.005Z,15.80
2018-07-12T00:39:47.040Z,15.80
2018-07-12T00:44:20.121Z,15.80
2018-07-12T00:48:53.165Z,15.80
2018-07-12T00:53:26.204Z,15.70
2018-07-12T00:57:59.281Z,15.70
2018-07-12T01:07:05.718Z,15.60
2018-07-12T01:11:38.768Z,15.70
2018-07-12T01:16:12.124Z,15.60
2018-07-12T01:20:45.145Z,15.60
2018-07-12T01:25:18.181Z,15.70
2018-07-12T01:29:51.393Z,15.80
2018-07-12T01:34:24.385Z,15.90
2018-07-12T01:38:57.474Z,15.90
2018-07-12T01:43:30.493Z,15.90
2018-07-12T01:48:03.593Z,15.80
2018-07-12T01:52:36.590Z,15.80
2018-07-12T01:57:09.677Z,15.90
2018-07-12T02:01:42.807Z,15.90
2018-07-12T02:06:15.965Z,15.90
2018-07-12T02:10:48.973Z,15.90
2018-07-12T02:15:22.016Z,15.90
2018-07-12T02:19:55.382Z,15.90
2018-07-12T02:24:28.427Z,15.90
2018-07-12T02:29:01.509Z,15.90
2018-07-12T02:33:34.616Z,15.80
2018-07-12T02:38:08.052Z,15.90
2018-07-12T02:42:41.089Z,15.90
2018-07-12T02:47:14.213Z,15.80
2018-07-12T02:51:47.296Z,15.80
2018-07-12T02:56:20.322Z,15.80
2018-07-12T03:00:53.709Z,15.80
2018-07-12T03:05:26.753Z,15.70
2018-07-12T03:09:59.800Z,15.70
2018-07-12T03:14:33.045Z,15.70
2018-07-12T03:19:06.161Z,15.70
2018-07-12T03:23:39.457Z,15.70
2018-07-12T03:28:12.569Z,15.70
2018-07-12T03:32:45.678Z,15.80
2018-07-12T03:37:18.769Z,15.70
2018-07-12T03:41:51.757Z,15.80
2018-07-12T03:50:58.058Z,15.90
2018-07-12T04:00:04.233Z,16.00
2018-07-12T04:04:37.415Z,16.00
2018-07-12T04:09:10.514Z,16.00
2018-07-12T04:13:43.585Z,16.00
2018-07-12T04:22:49.885Z,16.00
2018-07-12T04:27:23.305Z,16.00
2018-07-12T04:31:56.350Z,16.00
2018-07-12T04:36:29.484Z,16.00
2018-07-12T04:41:02.558Z,16.00
2018-07-12T04:45:35.682Z,16.00
2018-07-12T04:50:08.678Z,16.00
2018-07-12T04:54:41.726Z,16.10
2018-07-12T05:03:48.489Z,16.20
2018-07-12T05:08:21.609Z,16.30
2018-07-12T05:12:54.673Z,16.40
2018-07-12T05:17:27.688Z,16.50
2018-07-12T05:22:00.869Z,16.60
2018-07-12T05:26:34.032Z,16.70
2018-07-12T05:31:07.261Z,16.80
2018-07-12T05:35:41.670Z,17.00
2018-07-12T05:40:16.069Z,17.10
2018-07-12T05:44:50.684Z,17.20
2018-07-12T05:49:25.096Z,17.20
2018-07-12T05:53:59.543Z,17.30
2018-07-12T05:58:34.014Z,17.30
2018-07-12T06:03:08.380Z,17.40
2018-07-12T06:07:42.693Z,17.60
2018-07-12T06:12:17.118Z,17.80
2018-07-12T06:16:51.498Z,18.00
2018-07-12T06:21:25.949Z,18.30
2018-07-12T06:26:00.478Z,18.60
2018-07-12T06:30:34.878Z,18.90
2018-07-12T06:35:09.405Z,19.30
2018-07-12T06:39:43.665Z,19.60
2018-07-12T06:44:18.002Z,20.00
2018-07-12T06:48:52.617Z,20.40
2018-07-12T06:53:27.152Z,21.10
2018-07-12T06:58:01.918Z,21.60
2018-07-12T07:02:36.369Z,21.80
2018-07-12T07:07:11.293Z,21.80
2018-07-12T07:11:45.514Z,21.40
2018-07-12T07:16:19.746Z,21.10
2018-07-12T07:20:54.506Z,21.00
2018-07-12T07:25:29.216Z,21.10
2018-07-12T07:30:03.813Z,21.30
2018-07-12T07:34:38.313Z,21.80
2018-07-12T07:39:12.820Z,21.90
2018-07-12T07:43:47.303Z,22.30
2018-07-12T07:48:22.251Z,22.30
2018-07-12T07:52:57.096Z,22.20
2018-07-12T07:57:31.487Z,21.80
2018-07-12T08:02:05.917Z,21.40
2018-07-12T08:06:40.277Z,21.30
2018-07-12T08:11:14.790Z,21.70
2018-07-12T08:15:49.224Z,22.30
2018-07-12T08:20:24.201Z,22.70
2018-07-12T08:24:58.629Z,22.60
2018-07-12T08:29:33.821Z,22.40
2018-07-12T08:38:41.965Z,22.00
2018-07-12T08:43:17.504Z,21.60
2018-07-12T08:47:51.818Z,22.80
2018-07-12T08:52:26.047Z,23.60
2018-07-12T08:57:01.361Z,23.20
2018-07-12T09:01:35.708Z,22.80
2018-07-12T09:06:10.849Z,23.00
2018-07-12T09:10:45.501Z,23.10
2018-07-12T09:15:21.698Z,23.50
2018-07-12T09:19:56.242Z,24.20
2018-07-12T09:24:32.010Z,26.10
2018-07-12T09:29:06.968Z,25.90
2018-07-12T09:33:42.237Z,26.10
2018-07-12T09:38:42.092Z,27.00
2018-07-12T09:43:16.633Z,28.40
2018-07-12T09:47:50.953Z,29.90
2018-07-12T09:52:30.457Z,30.90
2018-07-12T09:57:16.266Z,32.00
2018-07-12T10:01:56.829Z,32.10
2018-07-12T10:06:32.573Z,31.20
2018-07-12T10:11:08.578Z,29.20
2018-07-12T10:15:44.009Z,27.70
2018-07-12T10:20:18.424Z,26.90
2018-07-12T10:24:52.833Z,26.20
2018-07-12T10:29:27.898Z,25.50
2018-07-12T10:34:02.737Z,25.70
2018-07-12T10:38:36.925Z,25.90
2018-07-12T10:43:11.204Z,26.50
2018-07-12T10:47:45.789Z,28.40
2018-07-12T10:52:20.034Z,29.60
2018-07-12T10:56:55.184Z,31.70
2018-07-12T11:01:30.553Z,32.10
2018-07-12T11:06:05.268Z,32.00
2018-07-12T11:10:39.966Z,33.10
2018-07-12T11:15:15.053Z,32.70
2018-07-12T11:19:50.408Z,32.00
2018-07-12T11:24:25.175Z,32.10
2018-07-12T11:29:00.498Z,31.60
2018-07-12T11:33:40.854Z,32.10
2018-07-12T11:38:15.085Z,33.10
2018-07-12T11:42:49.768Z,33.20
2018-07-12T11:47:25.776Z,32.90
2018-07-12T11:52:00.222Z,33.20
2018-07-12T11:56:34.611Z,33.60
2018-07-12T12:01:08.940Z,33.10
2018-07-12T12:10:17.644Z,31.90
2018-07-12T12:14:53.422Z,31.50
2018-07-12T12:19:27.760Z,30.80
2018-07-12T12:24:02.749Z,29.80
2018-07-12T12:28:36.933Z,28.90
2018-07-12T12:33:11.325Z,28.20
2018-07-12T12:37:46.325Z,28.30
2018-07-12T12:42:20.741Z,28.50
2018-07-12T12:46:54.953Z,29.30
2018-07-12T12:51:30.241Z,30.60
2018-07-12T12:56:04.643Z,31.20
2018-07-12T13:00:38.794Z,30.80
2018-07-12T13:05:13.893Z,30.70
2018-07-12T13:09:48.153Z,31.40
2018-07-12T13:14:22.655Z,32.70
2018-07-12T13:18:58.570Z,32.10
2018-07-12T13:23:33.457Z,30.80
2018-07-12T13:28:08.343Z,29.40
2018-07-12T13:32:44.046Z,28.50
2018-07-12T13:37:18.355Z,27.90
2018-07-12T13:41:53.006Z,27.80
2018-07-12T13:46:27.426Z,28.20
2018-07-12T13:51:01.700Z,28.90
2018-07-12T13:55:37.374Z,29.70
2018-07-12T14:00:11.742Z,30.20
2018-07-12T14:04:46.805Z,29.50
2018-07-12T14:13:55.682Z,27.50
2018-07-12T14:18:31.015Z,27.10
2018-07-12T14:23:05.983Z,26.80
2018-07-12T14:27:41.323Z,26.70
2018-07-12T14:32:16.039Z,26.60
2018-07-12T14:36:50.297Z,26.60
2018-07-12T14:41:24.494Z,26.70
2018-07-12T14:45:59.417Z,27.00
2018-07-12T14:50:34.057Z,27.60
2018-07-12T14:55:09.568Z,28.10
2018-07-12T14:59:43.806Z,28.30
2018-07-12T15:08:52.638Z,28.70
2018-07-12T15:13:26.840Z,28.60
2018-07-12T15:18:01.490Z,28.40
2018-07-12T15:22:36.261Z,28.30
2018-07-12T15:27:11.545Z,28.00
2018-07-12T15:31:46.494Z,27.90
2018-07-12T15:36:20.740Z,27.80
2018-07-12T15:40:54.950Z,27.60
2018-07-12T15:45:30.351Z,27.30
2018-07-12T15:50:05.345Z,27.30
2018-07-12T15:54:40.153Z,27.20
2018-07-12T15:59:14.664Z,27.10
2018-07-12T16:03:49.021Z,27.10
2018-07-12T16:08:25.798Z,27.30
2018-07-12T16:13:00.221Z,27.10
2018-07-12T16:17:35.289Z,26.90
2018-07-12T16:22:10.811Z,26.80
2018-07-12T16:26:45.833Z,26.80
2018-07-12T16:31:20.295Z,27.00
2018-07-12T16:35:54.683Z,27.30
2018-07-12T16:40:30.134Z,27.20
2018-07-12T16:45:06.410Z,27.10
2018-07-12T16:49:41.130Z,27.00
2018-07-12T16:54:15.709Z,26.90
2018-07-12T16:58:51.085Z,26.80
2018-07-12T17:03:25.363Z,26.80
2018-07-12T17:08:00.629Z,26.80
2018-07-12T17:12:34.975Z,26.90
2018-07-12T17:17:10.003Z,27.00
2018-07-12T17:21:45.034Z,26.90
2018-07-12T17:26:19.279Z,26.70
2018-07-12T17:30:54.440Z,26.50
2018-07-12T17:35:28.804Z,26.40
2018-07-12T17:40:03.098Z,26.20
2018-07-12T17:44:38.494Z,26.20
2018-07-12T17:49:13.177Z,26.10
2018-07-12T17:53:48.708Z,26.10
2018-07-12T17:58:22.917Z,26.20
2018-07-12T18:02:57.507Z,26.20
2018-07-12T18:07:32.756Z,26.00
2018-07-12T18:12:07.091Z,25.80
2018-07-12T18:16:42.115Z,25.50
2018-07-12T18:21:16.781Z,25.30
2018-07-12T18:25:51.138Z,25.10
2018-07-12T18:30:25.504Z,25.10
2018-07-12T18:34:59.913Z,24.90
2018-07-12T18:39:34.857Z,24.80
2018-07-12T18:44:09.370Z,24.70
2018-07-12T18:48:44.166Z,24.50
2018-07-12T18:53:18.489Z,24.40
2018-07-12T18:57:52.910Z,24.20
2018-07-12T19:02:27.107Z,24.10
2018-07-12T19:07:01.446Z,23.90
2018-07-12T19:11:35.705Z,23.70
2018-07-12T19:16:10.054Z,23.50
2018-07-12T19:20:44.526Z,23.20
2018-07-12T19:25:19.389Z,22.90
2018-07-12T19:29:54.170Z,22.70
2018-07-12T19:34:28.429Z,22.40
2018-07-12T19:39:02.854Z,22.10
2018-07-12T19:43:39.425Z,21.90
2018-07-12T19:48:13.850Z,21.60
2018-07-12T19:52:48.990Z,21.30
2018-07-12T19:57:23.367Z,21.20
2018-07-12T20:01:57.987Z,21.00
2018-07-12T20:06:32.594Z,20.80
2018-07-12T20:11:07.457Z,20.60
2018-07-12T20:15:41.842Z,20.50
2018-07-12T20:20:16.797Z,20.30
2018-07-12T20:24:52.746Z,20.10
2018-07-12T20:29:27.018Z,20.00
2018-07-12T20:34:01.868Z,19.80
2018-07-12T20:38:36.711Z,19.70
2018-07-12T20:43:15.926Z,19.50
2018-07-12T20:47:50.193Z,19.40
2018-07-12T20:52:24.498Z,19.20
2018-07-12T20:56:58.850Z,19.10
2018-07-12T21:01:33.250Z,19.00
2018-07-12T21:06:08.707Z,18.80
2018-07-12T21:10:44.130Z,18.60
2018-07-12T21:15:18.354Z,18.50
2018-07-12T21:19:52.665Z,18.40
2018-07-12T21:24:27.023Z,18.40
2018-07-12T21:29:02.874Z,18.20
2018-07-12T21:33:37.982Z,18.00
2018-07-12T21:38:12.901Z,17.90
2018-07-12T21:42:47.850Z,17.80
2018-07-12T21:47:22.089Z,17.80
2018-07-12T21:51:56.932Z,17.70
2018-07-12T21:56:31.415Z,17.60
2018-07-12T22:01:05.915Z,17.40
2018-07-12T22:05:40.405Z,17.30
2018-07-12T22:10:15.098Z,17.20
2018-07-12T22:14:49.727Z,17.10
2018-07-12T22:19:25.701Z,17.10
2018-07-12T22:24:01.145Z,17.10
2018-07-12T22:28:35.726Z,17.00
2018-07-12T22:33:10.654Z,17.00
2018-07-12T22:37:45.284Z,16.90
2018-07-12T22:42:19.774Z,16.80
2018-07-12T22:46:54.894Z,16.70
2018-07-12T22:51:29.709Z,16.70
2018-07-12T22:56:04.769Z,16.60
2018-07-12T23:00:40.329Z,16.50
2018-07-12T23:05:15.926Z,16.40
2018-07-12T23:09:50.165Z,16.20
2018-07-12T23:14:24.919Z,16.10
2018-07-12T23:18:59.251Z,16.10
2018-07-12T23:28:08.757Z,16.10
2018-07-12T23:37:17.418Z,16.00
2018-07-12T23:41:51.731Z,15.90
2018-07-12T23:46:26.382Z,15.80
2018-07-12T23:51:01.313Z,15.70
2018-07-12T23:55:35.704Z,15.70
